Time;durP1;ratioP1;P1;durP2;ratioP2;P2;SDS_P1;SDS_P2;PMS_P1;PMS_P2;Temp;Humidity;BMP_temperature;BMP_pressure;BME280_temperature;BME280_humidity;BME280_pressure;Samples;Min_cycle;Max_cycle;Signal;HPM_P1;HPM_P2
2021/01/29 00:00:55;;;;;;;1.43;1.33;;;;;;;-1.91;100.00;98428.84;1790771;79;20920;-70
2021/01/29 00:03:24;;;;;;;1.63;1.53;;;;;;;-1.89;100.00;98428.72;1790763;79;21004;-71
2021/01/29 00:05:55;;;;;;;1.60;1.13;;;;;;;-1.91;100.00;98441.27;1790799;80;20976;-74
2021/01/29 00:08:24;;;;;;;0.93;0.93;;;;;;;-1.89;100.00;98446.41;1790880;80;21471;-72
2021/01/29 00:10:52;;;;;;;1.30;1.30;;;;;;;-1.91;100.00;98448.72;1790924;79;21553;-71
2021/01/29 00:13:21;;;;;;;2.23;1.83;;;;;;;-1.88;100.00;98448.92;1790879;80;21042;-70
2021/01/29 00:15:49;;;;;;;0.57;0.57;;;;;;;-1.88;100.00;98460.02;1790901;80;21490;-72
2021/01/29 00:18:19;;;;;;;1.53;1.43;;;;;;;-1.88;100.00;98447.60;1790903;80;21553;-73
2021/01/29 00:20:47;;;;;;;1.20;1.20;;;;;;;-1.88;100.00;98455.55;1790714;80;21199;-70
2021/01/29 00:23:17;;;;;;;1.67;1.57;;;;;;;-1.91;100.00;98438.61;1790856;79;21493;-72
2021/01/29 00:25:53;;;;;;;1.40;1.40;;;;;;;-1.91;100.00;98460.64;1790854;80;20999;-71
2021/01/29 00:28:22;;;;;;;2.90;2.07;;;;;;;-1.90;100.00;98462.80;1789510;80;20994;-73
2021/01/29 00:30:50;;;;;;;1.53;1.37;;;;;;;-1.91;100.00;98471.73;1764017;81;21570;-72
2021/01/29 00:33:22;;;;;;;1.27;1.23;;;;;;;-1.92;100.00;98466.89;1763703;80;21368;-72
2021/01/29 00:35:50;;;;;;;1.57;1.33;;;;;;;-1.92;100.00;98480.63;1796746;79;21049;-72
2021/01/29 00:38:19;;;;;;;1.03;1.00;;;;;;;-1.93;100.00;98477.62;1796715;79;21498;-70
2021/01/29 00:40:47;;;;;;;3.13;2.17;;;;;;;-1.96;100.00;98490.66;1796727;79;21127;-72
2021/01/29 00:43:15;;;;;;;1.60;1.50;;;;;;;-1.98;100.00;98484.65;1799133;79;20892;-71
2021/01/29 00:45:43;;;;;;;2.17;1.87;;;;;;;-1.98;100.00;98485.97;1798946;79;21041;-72
2021/01/29 00:48:11;;;;;;;3.30;1.97;;;;;;;-1.99;100.00;98484.28;1799002;79;21022;-71
2021/01/29 00:50:39;;;;;;;2.13;1.93;;;;;;;-2.01;100.00;98494.17;1798974;79;20939;-71
2021/01/29 00:53:08;;;;;;;3.73;1.50;;;;;;;-2.02;100.00;98487.21;1798943;79;21563;-69
2021/01/29 00:55:36;;;;;;;2.37;2.27;;;;;;;-2.03;100.00;98489.49;1798906;79;20939;-71
2021/01/29 00:58:05;;;;;;;1.53;1.43;;;;;;;-2.03;100.00;98501.41;1798702;79;21872;-70
2021/01/29 01:00:39;;;;;;;1.60;1.50;;;;;;;-2.04;100.00;98481.17;1799075;79;21520;-73
2021/01/29 01:03:08;;;;;;;1.60;1.50;;;;;;;-2.08;100.00;98502.28;1798995;79;21054;-72
2021/01/29 01:05:36;;;;;;;2.63;1.30;;;;;;;-2.08;100.00;98509.39;1799019;79;21666;-72
2021/01/29 01:08:05;;;;;;;1.37;1.37;;;;;;;-2.12;100.00;98521.56;1798920;79;20967;-72
2021/01/29 01:10:37;;;;;;;;;;;;;;;-2.13;100.00;98530.46;1732739;81;21352;-71
2021/01/29 01:13:23;;;;;;;1.30;1.27;;;;;;;-2.12;100.00;98513.61;1845364;76;24924;-72
2021/01/29 01:16:07;;;;;;;0.93;0.93;;;;;;;-2.16;100.00;98521.47;1731605;82;21010;-69
2021/01/29 01:18:37;;;;;;;3.47;1.87;;;;;;;-2.16;100.00;98533.39;1731631;82;21335;-70
2021/01/29 01:21:07;;;;;;;2.23;2.03;;;;;;;-2.17;100.00;98523.75;1727928;82;20975;-71
2021/01/29 01:23:35;;;;;;;1.80;1.70;;;;;;;-2.18;100.00;98534.47;1731421;82;21072;-72
2021/01/29 01:26:03;;;;;;;5.30;2.03;;;;;;;-2.18;100.00;98526.52;1731696;82;21033;-71
2021/01/29 01:28:49;;;;;;;1.43;1.07;;;;;;;-2.18;100.00;98538.44;1700951;84;21132;-71
2021/01/29 01:31:19;;;;;;;5.80;2.30;;;;;;;-2.21;100.00;98530.28;1700490;84;21835;-72
2021/01/29 01:33:57;;;;;;;2.03;1.77;;;;;;;-2.18;100.00;98504.02;1845389;76;24970;-71
2021/01/29 01:36:42;;;;;;;2.33;1.93;;;;;;;-2.22;100.00;98516.66;1719245;82;21652;-71
2021/01/29 01:39:19;;;;;;;1.37;1.30;;;;;;;-2.18;100.00;98528.70;1835695;76;24790;-70
2021/01/29 01:41:47;;;;;;;1.40;1.30;;;;;;;-2.21;100.00;98545.30;1797044;78;21039;-71
2021/01/29 01:44:24;;;;;;;1.50;1.40;;;;;;;-2.19;100.00;98542.07;1797052;79;21204;-72
2021/01/29 01:46:56;;;;;;;1.07;1.07;;;;;;;-2.22;100.00;98536.52;1753718;81;20986;-73
2021/01/29 01:49:36;;;;;;;2.07;1.73;;;;;;;-2.24;100.00;98558.33;1731561;81;20974;-71
2021/01/29 01:52:24;;;;;;;1.80;1.70;;;;;;;-2.23;100.00;98536.19;1845249;76;26889;-70
2021/01/29 01:55:01;;;;;;;0.63;0.63;;;;;;;-2.28;100.00;98543.67;1699108;82;20957;-71
2021/01/29 01:57:31;;;;;;;2.83;2.20;;;;;;;-2.30;100.00;98535.02;1699144;84;21427;-70
2021/01/29 02:00:26;;;;;;;2.40;1.10;;;;;;;-2.34;100.00;98537.53;1698835;84;21545;-71
2021/01/29 02:03:05;;;;;;;1.20;1.17;;;;;;;-2.33;100.00;98541.39;1889911;76;24418;-70
2021/01/29 02:05:51;;;;;;;0.90;0.90;;;;;;;-2.36;100.00;98565.45;1802621;78;21702;-71
2021/01/29 02:08:29;;;;;;;3.90;1.87;;;;;;;-2.38;100.00;98556.80;1776112;78;21811;-71
2021/01/29 02:11:16;;;;;;;2.93;1.80;;;;;;;-2.38;100.00;98551.52;1802681;78;21462;-70
2021/01/29 02:13:52;;;;;;;1.43;1.33;;;;;;;-2.40;100.00;98548.64;1826805;78;20969;-71
2021/01/29 02:16:31;;;;;;;1.50;1.17;;;;;;;-2.43;100.00;98553.69;1827297;78;21229;-70
2021/01/29 02:19:21;;;;;;;1.13;1.13;;;;;;;-2.42;100.00;98551.41;1838116;77;24406;-71
2021/01/29 02:22:16;;;;;;;3.00;1.43;;;;;;;-2.46;100.00;98575.14;1818501;78;20993;-72
2021/01/29 02:25:17;;;;;;;0.97;0.97;;;;;;;-2.46;100.00;98568.52;1817275;78;20957;-72
2021/01/29 02:27:51;;;;;;;5.17;1.40;;;;;;;-2.47;100.00;98581.88;1733254;81;21032;-73
2021/01/29 02:30:55;;;;;;;0.70;0.70;;;;;;;-2.46;100.00;98577.78;1845081;76;23979;-72
2021/01/29 02:33:58;;;;;;;3.40;1.37;;;;;;;-2.49;100.00;98585.47;1788778;78;20997;-72
2021/01/29 02:37:08;;;;;;;2.97;1.77;;;;;;;-2.48;100.00;98594.25;1734382;82;21917;-72
2021/01/29 02:40:10;;;;;;;2.90;1.97;;;;;;;-2.50;100.00;98567.93;1746699;80;21101;-71
2021/01/29 02:42:44;;;;;;;3.23;1.80;;;;;;;-2.49;100.00;98587.29;1760218;79;22012;-69
2021/01/29 02:45:34;;;;;;;1.77;1.67;;;;;;;-2.48;100.00;98579.69;1844892;76;22850;-71
2021/01/29 02:48:35;;;;;;;0.93;0.93;;;;;;;-2.52;100.00;98584.88;1777126;79;21052;-72
2021/01/29 02:51:32;;;;;;;1.67;1.50;;;;;;;-2.51;100.00;98591.87;1845310;75;23975;-72
2021/01/29 02:54:36;;;;;;;1.10;0.93;;;;;;;-2.59;100.00;98595.11;1815398;79;20989;-71
2021/01/29 02:57:44;;;;;;;2.17;1.37;;;;;;;-2.61;100.00;98586.95;1810686;79;21811;-71
2021/01/29 03:00:48;;;;;;;1.10;1.10;;;;;;;-2.65;100.00;98606.70;1739466;81;21602;-72
2021/01/29 03:03:41;;;;;;;2.07;1.77;;;;;;;-2.69;100.00;98606.10;1739178;82;21150;-70
2021/01/29 03:06:33;;;;;;;1.27;1.27;;;;;;;-2.67;100.00;98609.46;1890023;76;24983;-72
2021/01/29 03:09:07;;;;;;;1.33;1.20;;;;;;;-2.70;100.00;98614.50;1860824;77;20931;-72
2021/01/29 03:12:31;;;;;;;1.60;1.37;;;;;;;-2.71;100.00;98631.36;1861123;77;22558;-72
2021/01/29 03:15:22;;;;;;;4.03;2.52;;;;;;;-2.73;100.00;98620.02;1861299;77;20975;-71
2021/01/29 03:18:32;;;;;;;1.40;1.37;;;;;;;-2.76;100.00;98622.94;1713911;80;20974;-71
2021/01/29 03:21:27;;;;;;;1.27;1.27;;;;;;;-2.77;100.00;98614.63;1747141;82;21073;-72
2021/01/29 03:24:35;;;;;;;0.73;0.73;;;;;;;-2.78;100.00;98624.00;1747096;81;21101;-71
2021/01/29 03:27:24;;;;;;;1.83;1.53;;;;;;;-2.80;100.00;98627.26;1748704;81;21918;-73
2021/01/29 03:30:15;;;;;;;1.40;1.37;;;;;;;-2.82;100.00;98627.38;1750091;82;21135;-71
2021/01/29 03:33:01;;;;;;;4.17;1.70;;;;;;;-2.83;100.00;98639.39;1747899;82;21005;-72
2021/01/29 03:36:03;;;;;;;1.20;1.20;;;;;;;-2.84;100.00;98635.09;1747177;81;21705;-70
2021/01/29 03:39:03;;;;;;;4.87;2.37;;;;;;;-2.84;100.00;98641.70;1726371;82;21065;-70
2021/01/29 03:41:54;;;;;;;1.73;1.60;;;;;;;-2.85;100.00;98652.77;1747191;82;21614;-71
2021/01/29 03:44:59;;;;;;;1.53;1.43;;;;;;;-2.81;100.00;98649.41;1889873;76;24019;-71
2021/01/29 03:47:58;;;;;;;1.73;1.63;;;;;;;-2.82;100.00;98656.47;1860805;77;20971;-71
2021/01/29 03:50:56;;;;;;;1.10;1.00;;;;;;;-2.82;100.00;98656.47;1860850;77;21180;-71
2021/01/29 03:54:06;;;;;;;1.80;1.13;;;;;;;-2.82;100.00;98672.84;1860732;77;20998;-71
2021/01/29 03:57:21;;;;;;;0.67;0.67;;;;;;;-2.84;100.00;98667.66;1860910;77;21041;-72
2021/01/29 04:00:27;;;;;;;1.30;1.20;;;;;;;-2.84;100.00;98666.34;1860929;77;20926;-71
2021/01/29 04:03:21;;;;;;;3.10;1.90;;;;;;;-2.81;100.00;98678.02;1719434;83;21066;-72
2021/01/29 04:06:23;;;;;;;3.03;2.13;;;;;;;-2.81;100.00;98670.08;1719440;83;21205;-72
2021/01/29 04:09:42;;;;;;;2.17;1.63;;;;;;;-2.82;100.00;98675.48;1719460;83;21040;-70
2021/01/29 04:12:28;;;;;;;3.72;2.75;;;;;;;-2.79;100.00;98677.90;1829458;76;27716;-70
2021/01/29 04:15:17;;;;;;;2.50;1.73;;;;;;;-2.77;100.00;98690.52;1845220;75;24467;-71
2021/01/29 04:18:09;;;;;;;1.13;1.13;;;;;;;-2.79;100.00;98673.93;1815412;79;21043;-71
2021/01/29 04:20:52;;;;;;;1.97;1.57;;;;;;;-2.81;100.00;98683.30;1815288;79;21039;-72
2021/01/29 04:23:28;;;;;;;1.95;1.50;;;;;;;-2.83;100.00;98696.27;1815373;78;21040;-72
2021/01/29 04:26:04;;;;;;;1.57;1.40;;;;;;;-2.85;100.00;98696.42;1716894;82;21001;-70
2021/01/29 04:28:35;;;;;;;2.17;1.93;;;;;;;-2.88;100.00;98686.07;1731288;81;21024;-72
2021/01/29 04:31:06;;;;;;;3.23;2.13;;;;;;;-2.89;100.00;98696.27;1731622;82;21091;-71
2021/01/29 04:33:42;;;;;;;1.90;1.70;;;;;;;-2.91;100.00;98703.00;1694291;82;21362;-71
2021/01/29 04:36:10;;;;;;;1.23;1.23;;;;;;;-2.91;100.00;98698.20;1716517;83;21002;-71
2021/01/29 04:38:45;;;;;;;6.27;2.63;;;;;;;-2.91;100.00;98702.17;1716648;83;21025;-72
2021/01/29 04:41:28;;;;;;;1.50;1.40;;;;;;;-2.88;100.00;98703.27;1845480;76;25776;-72
2021/01/29 04:44:20;;;;;;;1.87;1.40;;;;;;;-2.91;100.00;98704.81;1777015;80;21021;-70
2021/01/29 04:47:23;;;;;;;1.60;1.50;;;;;;;-2.94;100.00;98695.33;1777282;80;21266;-71
2021/01/29 04:50:21;;;;;;;1.20;1.10;;;;;;;-2.94;100.00;98722.23;1777270;80;21555;-71
2021/01/29 04:53:23;;;;;;;1.63;1.53;;;;;;;-2.95;100.00;98715.28;1777252;80;21086;-70
2021/01/29 04:56:16;;;;;;;1.23;1.23;;;;;;;-2.95;100.00;98722.72;1777221;80;21064;-72
2021/01/29 04:59:20;;;;;;;3.33;2.20;;;;;;;-2.93;100.00;98722.61;1889986;76;23003;-72
2021/01/29 05:02:55;;;;;;;3.33;2.37;;;;;;;-2.97;100.00;98724.65;1746894;82;21031;-71
2021/01/29 05:06:20;;;;;;;2.03;1.83;;;;;;;-2.96;100.00;98727.64;1746876;80;21661;-72
2021/01/29 05:09:40;;;;;;;4.70;2.47;;;;;;;-2.96;100.00;98728.13;1746937;82;21141;-72
2021/01/29 05:13:14;;;;;;;5.00;2.67;;;;;;;-2.94;100.00;98720.91;1845277;76;22713;-72
2021/01/29 05:16:08;;;;;;;5.70;3.40;;;;;;;-2.99;100.00;98729.22;1815457;79;21012;-71
2021/01/29 05:19:20;;;;;;;3.13;2.63;;;;;;;-3.00;100.00;98741.23;1811210;79;22537;-71
2021/01/29 05:22:17;;;;;;;3.77;2.77;;;;;;;-3.00;100.00;98738.10;1811167;79;21339;-71
2021/01/29 05:25:25;;;;;;;7.73;3.20;;;;;;;-2.97;100.00;98752.91;1815343;78;20992;-73
2021/01/29 05:28:21;;;;;;;3.93;2.73;;;;;;;-2.96;100.00;98743.51;1815318;79;21001;-72
2021/01/29 05:31:12;;;;;;;7.00;3.40;;;;;;;-2.95;100.00;98754.47;1815475;79;21636;-71
2021/01/29 05:34:21;;;;;;;3.70;2.53;;;;;;;-2.95;100.00;98764.22;1810549;79;21663;-72
2021/01/29 05:37:32;;;;;;;3.67;2.70;;;;;;;-2.95;100.00;98772.15;1815337;77;20893;-72
2021/01/29 05:40:11;;;;;;;3.30;2.30;;;;;;;-2.96;100.00;98763.34;1811213;79;20976;-72
2021/01/29 05:43:27;;;;;;;4.43;2.93;;;;;;;-2.96;100.00;98769.95;1812833;79;20885;-72
2021/01/29 05:46:22;;;;;;;1.83;1.73;;;;;;;-2.94;100.00;98781.75;1728522;81;21581;-73
2021/01/29 05:49:27;;;;;;;4.00;2.47;;;;;;;-2.89;100.00;98785.73;1845275;76;22431;-72
2021/01/29 05:52:23;;;;;;;1.83;1.73;;;;;;;-2.92;100.00;98783.80;1815415;77;21387;-71
2021/01/29 05:55:35;;;;;;;2.23;1.87;;;;;;;-2.91;100.00;98788.14;1815482;79;21529;-72
2021/01/29 05:58:37;;;;;;;2.23;2.03;;;;;;;-2.87;100.00;98779.86;1844760;76;23245;-73
2021/01/29 06:01:16;;;;;;;3.05;2.67;;;;;;;-2.89;100.00;98787.05;1805817;79;20989;-71
2021/01/29 06:04:16;;;;;;;3.53;2.37;;;;;;;-2.89;100.00;98791.50;1779031;80;21653;-72
2021/01/29 06:07:01;;;;;;;1.90;1.80;;;;;;;-2.87;100.00;98786.94;1783119;80;20985;-72
2021/01/29 06:09:52;;;;;;;3.00;2.10;;;;;;;-2.86;100.00;98791.28;1797740;78;20988;-71
2021/01/29 06:12:50;;;;;;;5.23;3.17;;;;;;;-2.85;100.00;98792.98;1811099;79;20944;-80
2021/01/29 06:15:57;;;;;;;3.30;2.40;;;;;;;-2.82;100.00;98793.21;1815436;79;20992;-77
2021/01/29 06:18:42;;;;;;;2.27;2.03;;;;;;;-2.81;100.00;98791.78;1728766;79;21275;-72
2021/01/29 06:21:46;;;;;;;2.07;1.87;;;;;;;-2.82;100.00;98798.02;1716987;83;20979;-72
2021/01/29 06:24:55;;;;;;;1.97;1.63;;;;;;;-2.81;100.00;98798.88;1727823;83;21623;-74
2021/01/29 06:27:35;;;;;;;3.60;2.53;;;;;;;-2.78;100.00;98807.88;1717312;83;21049;-72
2021/01/29 06:30:39;;;;;;;2.77;2.27;;;;;;;-2.77;100.00;98797.19;1705031;83;21298;-72
2021/01/29 06:33:43;;;;;;;2.60;1.83;;;;;;;-2.74;100.00;98800.09;1717327;83;21195;-73
2021/01/29 06:36:27;;;;;;;;;;;;;;;-2.72;100.00;98808.76;1730245;83;21120;-75
2021/01/29 06:39:15;;;;;;;2.30;2.20;;;;;;;-2.74;100.00;98794.31;1721352;82;20186;-72
2021/01/29 06:42:12;;;;;;;3.40;2.63;;;;;;;-2.77;100.00;98805.61;1741280;82;21082;-73
2021/01/29 06:45:19;;;;;;;4.90;2.83;;;;;;;-2.77;100.00;98809.09;1741082;82;20936;-74
2021/01/29 06:48:18;;;;;;;6.23;3.13;;;;;;;-2.76;100.00;98815.22;1741210;81;21417;-73
2021/01/29 06:51:07;;;;;;;4.87;2.57;;;;;;;-2.75;100.00;98806.34;1737816;82;21039;-73
2021/01/29 06:54:09;;;;;;;2.60;2.40;;;;;;;-2.76;100.00;98808.15;1741287;82;21038;-75
2021/01/29 06:57:23;;;;;;;2.77;2.30;;;;;;;-2.79;100.00;98822.92;1801839;78;21518;-74
2021/01/29 07:00:29;;;;;;;6.03;3.63;;;;;;;-2.83;100.00;98813.55;1805642;79;20927;-74
2021/01/29 07:03:35;;;;;;;5.20;3.87;;;;;;;-2.81;100.00;98818.23;1718555;80;21785;-71
2021/01/29 07:06:29;;;;;;;2.40;2.20;;;;;;;-2.76;100.00;98811.25;1716192;83;21018;-72
2021/01/29 07:09:30;;;;;;;;;;;;;;;-2.75;100.00;98823.05;1660948;85;21083;-72
2021/01/29 07:12:21;;;;;;;4.53;3.37;;;;;;;-2.77;100.00;98811.74;1676350;85;20345;-72
2021/01/29 07:15:14;;;;;;;5.17;3.53;;;;;;;-2.77;100.00;98825.45;1674263;85;21046;-71
2021/01/29 07:17:53;;;;;;;2.87;2.45;;;;;;;-2.78;100.00;98811.39;1677036;85;21512;-73
2021/01/29 07:21:04;;;;;;;4.83;3.17;;;;;;;-2.75;100.00;98823.53;1889910;76;24390;-72
2021/01/29 07:24:01;;;;;;;5.83;3.42;;;;;;;-2.80;100.00;98819.91;1861154;77;21034;-72
2021/01/29 07:27:10;;;;;;;5.93;3.33;;;;;;;-2.75;100.00;98818.24;1860931;77;21185;-71
2021/01/29 07:30:08;;;;;;;2.93;2.63;;;;;;;-2.77;100.00;98811.74;1861119;77;20910;-72
2021/01/29 07:32:50;;;;;;;3.43;3.07;;;;;;;-2.76;100.00;98809.92;1861255;76;20930;-72
2021/01/29 07:35:53;;;;;;;5.50;3.80;;;;;;;-2.73;100.00;98816.31;1821057;78;21517;-71
2021/01/29 07:38:55;;;;;;;5.62;3.35;;;;;;;-2.76;100.00;98816.55;1826608;77;21087;-73
2021/01/29 07:41:55;;;;;;;8.40;4.45;;;;;;;-2.77;100.00;98825.45;1821268;77;21092;-73
2021/01/29 07:44:54;;;;;;;7.10;3.93;;;;;;;-2.75;100.00;98821.72;1824422;77;20993;-69
2021/01/29 07:48:06;;;;;;;10.03;4.67;;;;;;;-2.61;100.00;98815.38;1813554;77;23984;-73
2021/01/29 07:50:49;;;;;;;7.67;3.87;;;;;;;-2.54;100.00;98819.25;1769894;80;20975;-75
2021/01/29 07:53:46;;;;;;;6.43;4.60;;;;;;;-2.41;100.00;98827.08;1773081;80;21436;-77
2021/01/29 07:56:53;;;;;;;5.87;4.00;;;;;;;-2.37;100.00;98814.48;1716355;81;21560;-74
2021/01/29 07:59:49;;;;;;;5.60;4.30;;;;;;;-2.38;100.00;98814.93;1714609;83;21508;-74
2021/01/29 08:02:44;;;;;;;8.93;4.10;;;;;;;-2.32;100.00;98823.73;1702373;83;21090;-76
2021/01/29 08:05:29;;;;;;;6.83;3.90;;;;;;;-2.25;100.00;98807.36;1715779;83;21035;-76
2021/01/29 08:08:22;;;;;;;6.63;3.63;;;;;;;-2.21;100.00;98803.50;1687082;85;21422;-79
2021/01/29 08:10:54;;;;;;;5.90;4.10;;;;;;;-2.17;100.00;98807.13;1706921;83;21133;-75
2021/01/29 08:14:03;;;;;;;6.73;3.40;;;;;;;-2.03;100.00;98799.42;1722069;83;21038;-80
2021/01/29 08:17:04;;;;;;;5.17;3.73;;;;;;;-1.83;100.00;98802.29;1729003;83;21074;-75
2021/01/29 08:20:20;;;;;;;8.47;4.13;;;;;;;-1.73;100.00;98801.91;1851547;77;25984;-75
2021/01/29 08:23:16;;;;;;;11.53;6.00;;;;;;;-1.79;100.00;98791.33;1752111;81;21044;-76
2021/01/29 08:26:06;;;;;;;8.90;4.70;;;;;;;-1.85;100.00;98799.75;1844999;76;25899;-76
2021/01/29 08:29:15;;;;;;;4.92;3.90;;;;;;;-1.87;100.00;98808.31;1815093;79;21581;-76
2021/01/29 08:32:06;;;;;;;8.13;3.83;;;;;;;-1.70;100.00;98816.71;1798523;79;21357;-74
2021/01/29 08:35:13;;;;;;;5.70;3.43;;;;;;;-1.31;100.00;98815.77;1907733;74;26500;-76
2021/01/29 08:37:49;;;;;;;7.37;3.90;;;;;;;-1.16;100.00;98809.22;1862139;76;20863;-76
2021/01/29 08:40:31;;;;;;;4.13;3.67;;;;;;;-1.01;100.00;98821.22;1802454;78;21386;-76
2021/01/29 08:43:16;;;;;;;8.57;3.93;;;;;;;-1.01;100.00;98812.40;1752406;80;21086;-78
2021/01/29 08:46:02;;;;;;;8.57;3.93;;;;;;;-1.02;100.00;98789.51;1825843;77;24781;-78
2021/01/29 08:49:09;;;;;;;6.33;3.70;;;;;;;-1.12;100.00;98815.94;1744222;81;21026;-73
2021/01/29 08:52:15;;;;;;;3.60;2.80;;;;;;;-1.18;100.00;98816.47;1755940;81;22104;-72
2021/01/29 08:55:00;;;;;;;5.17;3.20;;;;;;;-1.26;100.00;98803.81;1721409;83;21063;-73
2021/01/29 08:57:54;;;;;;;8.73;4.37;;;;;;;-1.20;100.00;98807.30;1719737;83;21003;-76
2021/01/29 09:00:28;;;;;;;6.23;3.40;;;;;;;-1.14;100.00;98809.92;1736671;82;20998;-74
2021/01/29 09:03:24;;;;;;;6.80;4.30;;;;;;;-1.08;100.00;98796.63;1739376;82;21364;-74
2021/01/29 09:06:14;;;;;;;5.93;3.57;;;;;;;-1.14;100.00;98795.34;1734921;82;21794;-76
2021/01/29 09:08:42;;;;;;;5.40;3.17;;;;;;;-1.20;100.00;98797.19;1710820;83;21021;-74
2021/01/29 09:11:25;;;;;;;4.00;2.87;;;;;;;-1.24;100.00;98810.33;1711319;83;21626;-74
2021/01/29 09:14:03;;;;;;;4.17;2.97;;;;;;;-1.16;100.00;98790.65;1845445;76;27974;-73
2021/01/29 09:16:33;;;;;;;7.50;3.93;;;;;;;-1.19;100.00;98775.84;1814603;78;21016;-74
2021/01/29 09:19:14;;;;;;;5.57;4.17;;;;;;;-1.12;100.00;98788.58;1784745;79;21194;-74
2021/01/29 09:22:24;;;;;;;5.93;3.70;;;;;;;-0.94;100.00;98785.70;1782479;80;21086;-76
2021/01/29 09:25:16;;;;;;;6.30;3.37;;;;;;;-0.76;100.00;98787.33;1782731;80;21629;-73
2021/01/29 09:28:17;;;;;;;5.43;2.20;;;;;;;-0.69;100.00;98759.28;1782518;80;21067;-74
2021/01/29 09:31:01;;;;;;;4.57;2.90;;;;;;;-0.64;100.00;98781.44;1669878;84;21120;-76
2021/01/29 09:33:49;;;;;;;5.50;3.07;;;;;;;-0.52;100.00;98792.84;1673257;83;21670;-73
2021/01/29 09:36:30;;;;;;;4.23;3.57;;;;;;;-0.32;100.00;98776.50;1843784;76;25385;-73
2021/01/29 09:39:09;;;;;;;4.93;3.20;;;;;;;-0.28;100.00;98789.90;1788558;79;21012;-77
2021/01/29 09:41:47;;;;;;;5.47;3.33;;;;;;;-0.33;100.00;98792.94;1806163;79;21071;-75
2021/01/29 09:44:46;;;;;;;4.93;3.97;;;;;;;-0.30;100.00;98798.46;1794847;79;21023;-74
2021/01/29 09:47:19;;;;;;;3.97;2.57;;;;;;;-0.29;100.00;98799.66;1783209;79;20968;-75
2021/01/29 09:49:47;;;;;;;3.67;2.90;;;;;;;-0.43;100.00;98800.01;1783417;80;21004;-74
2021/01/29 09:52:59;;;;;;;7.40;3.90;;;;;;;-0.54;100.00;98795.63;1783590;80;20908;-71
2021/01/29 09:55:42;;;;;;;5.13;3.00;;;;;;;-0.55;100.00;98795.75;1667138;85;21226;-73
2021/01/29 09:58:17;;;;;;;5.33;4.00;;;;;;;-0.48;100.00;98791.13;1696807;84;21107;-74
2021/01/29 10:01:02;;;;;;;4.40;2.77;;;;;;;-0.52;100.00;98805.62;1668776;86;21045;-75
2021/01/29 10:03:41;;;;;;;6.83;3.33;;;;;;;-0.59;100.00;98799.15;1677661;84;21128;-75
2021/01/29 10:06:34;;;;;;;4.97;3.27;;;;;;;-0.64;100.00;98806.20;1638069;86;21603;-75
2021/01/29 10:09:10;;;;;;;4.40;3.02;;;;;;;-0.73;100.00;98810.09;1703032;84;21700;-74
2021/01/29 10:12:12;;;;;;;6.00;2.97;;;;;;;-0.81;100.00;98803.63;1890298;76;25455;-77
2021/01/29 10:15:03;;;;;;;5.07;3.37;;;;;;;-0.85;100.00;98790.27;1831247;77;21008;-75
2021/01/29 10:17:46;;;;;;;3.57;2.50;;;;;;;-0.84;100.00;98808.35;1843810;77;21034;-72
2021/01/29 10:20:22;;;;;;;2.97;2.53;;;;;;;-0.84;100.00;98787.95;1771993;81;21007;-75
2021/01/29 10:23:23;;;;;;;4.17;3.27;;;;;;;-0.82;100.00;98791.80;1845564;76;24779;-75
2021/01/29 10:26:18;;;;;;;;;;;;;;;-0.82;100.00;98789.16;1794930;79;21019;-78
2021/01/29 10:29:24;;;;;;;7.33;3.10;;;;;;;-0.82;100.00;98801.09;1765577;81;20988;-74
2021/01/29 10:32:19;;;;;;;12.67;3.83;;;;;;;-0.91;100.00;98785.95;1753239;81;21052;-73
2021/01/29 10:35:01;;;;;;;6.10;3.43;;;;;;;-0.91;100.00;98770.03;1765362;81;21110;-76
2021/01/29 10:37:41;;;;;;;3.17;2.87;;;;;;;-0.88;100.00;98777.25;1761884;80;21056;-76
2021/01/29 10:40:41;;;;;;;8.33;4.10;;;;;;;-0.85;100.00;98782.30;1755472;80;20997;-79
2021/01/29 10:43:40;;;;;;;5.30;3.37;;;;;;;-0.87;100.00;98778.91;1773625;80;21136;-71
2021/01/29 10:46:39;;;;;;;8.90;4.93;;;;;;;-0.86;100.00;98771.31;1762109;80;21683;-74
2021/01/29 10:49:28;;;;;;;4.10;3.70;;;;;;;-0.84;100.00;98768.54;1761825;80;21092;-78
2021/01/29 10:52:10;;;;;;;8.37;4.50;;;;;;;-0.87;100.00;98774.93;1756530;80;21730;-79
2021/01/29 10:54:39;;;;;;;8.15;4.92;;;;;;;-0.87;100.00;98767.46;1748493;80;21459;-77
2021/01/29 10:57:33;;;;;;;8.10;4.23;;;;;;;-0.88;100.00;98756.02;1745002;80;22227;-76
2021/01/29 11:00:18;;;;;;;4.67;3.03;;;;;;;-0.85;100.00;98756.23;1730124;81;21050;-78
2021/01/29 11:02:50;;;;;;;6.97;4.03;;;;;;;-0.84;100.00;98750.80;1702059;83;21105;-83
2021/01/29 11:05:23;;;;;;;8.58;4.28;;;;;;;-0.87;100.00;98743.08;1717759;81;21188;-72
2021/01/29 11:07:56;;;;;;;8.70;3.83;;;;;;;-0.88;100.00;98741.42;1715417;82;21231;-75
2021/01/29 11:10:33;;;;;;;5.03;3.07;;;;;;;-0.90;100.00;98746.02;1728274;82;21686;-70
2021/01/29 11:13:27;;;;;;;6.87;3.53;;;;;;;-0.89;100.00;98730.93;1731488;82;21115;-73
2021/01/29 11:16:01;;;;;;;5.03;3.57;;;;;;;-0.86;100.00;98734.66;1728187;82;20997;-73
2021/01/29 11:18:35;;;;;;;6.43;3.70;;;;;;;-0.84;100.00;98724.75;1731660;82;21624;-73
2021/01/29 11:21:42;;;;;;;5.83;3.37;;;;;;;-0.78;100.00;98733.03;1852136;76;25605;-75
2021/01/29 11:24:39;;;;;;;6.00;3.70;;;;;;;-0.79;100.00;98727.36;1782954;80;21449;-73
2021/01/29 11:27:26;;;;;;;6.33;3.47;;;;;;;-0.77;100.00;98719.27;1855390;77;21646;-74
2021/01/29 11:30:22;;;;;;;5.50;3.60;;;;;;;-0.73;100.00;98704.75;1852379;77;20937;-75
2021/01/29 11:32:59;;;;;;;5.70;3.47;;;;;;;-0.71;100.00;98714.75;1783604;76;20982;-73
2021/01/29 11:35:44;;;;;;;7.17;3.67;;;;;;;-0.68;100.00;98709.67;1784015;80;20986;-74
2021/01/29 11:38:43;;;;;;;6.00;4.00;;;;;;;-0.62;100.00;98710.46;1783456;80;21048;-75
2021/01/29 11:42:01;;;;;;;6.60;3.50;;;;;;;-0.52;100.00;98700.73;1852099;76;27387;-73
2021/01/29 11:44:42;;;;;;;7.43;4.70;;;;;;;-0.50;100.00;98695.29;1776588;80;20974;-73
2021/01/29 11:47:18;;;;;;;6.53;4.20;;;;;;;-0.48;100.00;98696.85;1770204;80;22032;-76
2021/01/29 11:50:11;;;;;;;5.47;3.70;;;;;;;-0.43;100.00;98689.80;1845548;76;27332;-72
2021/01/29 11:53:00;;;;;;;5.50;3.60;;;;;;;-0.45;100.00;98698.39;1815748;79;21039;-73
2021/01/29 11:55:32;;;;;;;12.47;4.87;;;;;;;-0.47;100.00;98698.52;1814138;79;22178;-72
2021/01/29 11:58:24;;;;;;;6.85;3.67;;;;;;;-0.43;100.00;98695.94;1815876;79;21351;-78
2021/01/29 12:01:04;;;;;;;7.67;4.07;;;;;;;-0.40;100.00;98704.97;1815638;79;21047;-75
2021/01/29 12:03:53;;;;;;;5.47;3.43;;;;;;;-0.36;100.00;98691.43;1744851;82;21057;-73
2021/01/29 12:06:43;;;;;;;7.00;4.20;;;;;;;-0.32;100.00;98693.70;1718867;82;21075;-74
2021/01/29 12:09:51;;;;;;;12.58;5.95;;;;;;;-0.28;100.00;98696.42;1836513;76;27794;-76
2021/01/29 12:12:30;;;;;;;6.93;3.87;;;;;;;-0.31;100.00;98692.70;1782996;80;20916;-73
2021/01/29 12:15:28;;;;;;;7.20;4.67;;;;;;;-0.31;100.00;98695.36;1855485;77;21340;-75
2021/01/29 12:17:58;;;;;;;8.27;4.43;;;;;;;-0.30;100.00;98693.07;1855498;77;20949;-75
2021/01/29 12:20:31;;;;;;;5.47;3.37;;;;;;;-0.28;100.00;98689.78;1855486;77;20981;-76
2021/01/29 12:23:23;;;;;;;8.93;4.33;;;;;;;-0.29;100.00;98686.77;1777355;80;20966;-74
2021/01/29 12:26:20;;;;;;;8.63;4.90;;;;;;;-0.29;100.00;98689.42;1778103;80;20989;-74
2021/01/29 12:29:12;;;;;;;6.37;4.53;;;;;;;-0.28;100.00;98689.78;1778053;80;21576;-72
2021/01/29 12:32:09;;;;;;;8.93;4.87;;;;;;;-0.28;100.00;98679.66;1774425;80;20938;-73
2021/01/29 12:34:46;;;;;;;7.10;4.33;;;;;;;-0.28;100.00;98656.58;1746018;82;20998;-76
2021/01/29 12:37:25;;;;;;;9.43;5.07;;;;;;;-0.28;100.00;98681.81;1745772;82;21001;-74
2021/01/29 12:40:01;;;;;;;6.37;3.70;;;;;;;-0.27;100.00;98672.85;1745779;82;21110;-72
2021/01/29 12:42:53;;;;;;;5.57;3.37;;;;;;;-0.24;100.00;98665.95;1821240;77;25756;-75
2021/01/29 12:45:52;;;;;;;5.87;3.87;;;;;;;-0.26;100.00;98666.58;1821935;78;21022;-76
2021/01/29 12:48:50;;;;;;;6.73;3.07;;;;;;;-0.26;100.00;98667.91;1822473;78;21547;-77
2021/01/29 12:51:44;;;;;;;5.07;3.50;;;;;;;-0.26;100.00;98659.11;1822027;78;21488;-80
2021/01/29 12:54:22;;;;;;;7.80;4.33;;;;;;;-0.25;100.00;98654.13;1818039;78;20982;-77
2021/01/29 12:57:06;;;;;;;8.57;4.67;;;;;;;-0.23;100.00;98658.34;1817345;78;21018;-72
2021/01/29 12:59:51;;;;;;;6.53;3.93;;;;;;;-0.17;100.00;98651.64;1845562;76;24978;-72
2021/01/29 13:02:54;;;;;;;9.78;4.78;;;;;;;-0.16;100.00;98646.69;1829389;76;27794;-74
2021/01/29 13:05:59;;;;;;;12.37;4.80;;;;;;;-0.17;100.00;98633.05;1815414;77;20929;-72
2021/01/29 13:08:39;;;;;;;8.77;4.40;;;;;;;-0.15;100.00;98640.88;1815439;79;21201;-72